Terminal Aerodrome Forecast
Issued by NWS

Home | Current Version | Previous Version | Text Only | Print | Product List | Glossary On
Versions: 1 2 3 4 5 6 7 8 9 10 11 12 13 14 15 16
392
FTPA31 PHFO 192340
TAFSTU
TAF
NSTU 192340Z 2000/2024 33018G28KT 6SM -SHRA SCT015 BKN035 OVC090
     FM200400 32017G25KT P6SM VCSH SCT015 BKN035 BKN100
     FM201800 33012KT P6SM FEW015 SCT040 BKN100=

USA.gov is the U.S. government's official web portal to all federal, state and local government web resources and services.